Aérodrome :
LOGIN :

S'inscrire | Disclaimer

   EN    FR    IT 

 










Légende :    VFR   VFR Marginal   IFR   IFR Intensif   IFR Très Intensif
Visi : 
Plafond : 
>= 8 km
>= 3000ft
5 à 8 km
1000 à 3000 ft
1500m à 5 km
500 à 1000 ft
800 à 1500m
200 à 500 ft
< 800m
< 200 ft
Symboles :   Orages  Brouillard  Fortes neiges  Fortes précipitations  Vent > 20 kt
SIGMETs :   Divers  Orages  Givrage  Turbulence  Onde Orograph.  Cendres Volcan.







- Altitude de l'aérodrome : 160 ft
- Code IATA : LRT
- Voir les cartes d'approche


LFRH - Lorient Lann Bihoue

DERNIER METAR :
  • 241230Z AUTO 28004KT 230V340 CAVOK 11/07 Q1014 TEMPO SHRA BKN015TCU

METARs EXPIRÉS :
  • 241200Z AUTO 31003KT 270V340 9999 FEW046 SCT062 BKN170 11/08 Q1014 TEMPO SHRA BKN015TCU
  • 241130Z AUTO 34003KT 290V020 9999 FEW012 BKN041 BKN049 11/09 Q1014 TEMPO SHRA BKN015TCU
  • 241100Z AUTO 29006KT 240V320 9999 FEW014 SCT021 BKN040 11/09 Q1014 TEMPO SCT015TCU BKN020
  • 241030Z AUTO 21002KT 9999 SCT043 OVC058 10/09 Q1014 TEMPO 32010G20KT SCT015TCU BKN020
  • 241000Z AUTO 16003KT 120V250 9999 FEW026 BKN039 BKN050 09/09 Q1014 TEMPO 32010G20KT SCT015TCU BKN020

TAF TAF LFRH
Valide du 24 à 12h jusqu'au 25 à 12h UTC


241100Z 2412/2512 VRB02KT 9999 SCT020 BKN040
TEMPO 2412/2417 32010G20KT 5000 SHRA BKN015TCU
BECMG 2417/2419 32012KT
PROB30
TEMPO 2420/2512 -SHRA
Pas de NOTAMs connus pour ce terrain.



MET'MAP, la Météo Aéronautique d'un coup d'oeil ! - Copyright ORBIFLY Décembre 2007 - Disclaimer

ORBIFLY MET'MAP TEAM :

Programmation & Développement : Alexandra Zaïnal
Conception & Développement : Baudouin d'Aumeries
Co-Programmation & Développement : Marc-Olivier Méhu
Soutien technique & logistique : Manuel Goepfert

Contact : metmap@orbifly.com




SOURCES & CREDITS :

   NOAA